createdAt,value
2022-12-27T00:00:58.950Z,108.63
2022-12-27T00:03:27.009Z,104.47
2022-12-27T00:05:54.985Z,135.73
2022-12-27T00:08:22.946Z,132.00
2022-12-27T00:10:51.143Z,137.00
2022-12-27T00:13:19.082Z,127.25
2022-12-27T00:15:46.966Z,136.88
2022-12-27T00:18:15.055Z,120.25
2022-12-27T00:20:43.037Z,116.10
2022-12-27T00:23:10.991Z,135.77
2022-12-27T00:25:38.978Z,109.30
2022-12-27T00:28:06.889Z,111.05
2022-12-27T00:30:34.979Z,126.75
2022-12-27T00:33:02.895Z,178.43
2022-12-27T00:35:30.891Z,152.00
2022-12-27T00:37:59.222Z,153.00
2022-12-27T00:40:29.169Z,133.43
2022-12-27T00:42:57.168Z,110.30
2022-12-27T00:45:25.120Z,88.03
2022-12-27T00:47:53.093Z,96.28
2022-12-27T00:50:21.129Z,133.15
2022-12-27T00:52:49.113Z,185.52
2022-12-27T00:55:17.217Z,105.45
2022-12-27T00:57:45.182Z,110.10
2022-12-27T01:00:13.956Z,110.10
2022-12-27T01:02:42.106Z,121.10
2022-12-27T01:05:10.257Z,154.18
2022-12-27T01:07:38.269Z,139.98
2022-12-27T01:10:06.768Z,101.78
2022-12-27T01:12:36.125Z,94.10
2022-12-27T01:15:06.189Z,102.57
2022-12-27T01:17:34.698Z,125.50
2022-12-27T01:20:03.359Z,102.32
2022-12-27T01:22:31.308Z,99.07
2022-12-27T01:24:59.234Z,104.00
2022-12-27T01:27:27.305Z,112.65
2022-12-27T01:29:55.277Z,105.60
2022-12-27T01:32:23.531Z,98.15
2022-12-27T01:34:52.105Z,95.43
2022-12-27T01:37:20.028Z,114.65
2022-12-27T01:39:47.936Z,98.97
2022-12-27T01:42:38.433Z,78.90
2022-12-27T01:45:32.959Z,75.35
2022-12-27T01:48:12.437Z,109.25
2022-12-27T01:50:55.391Z,69.80
2022-12-27T01:53:30.134Z,72.50
2022-12-27T01:56:03.836Z,63.85
2022-12-27T01:58:37.414Z,46.97
2022-12-27T02:01:11.587Z,51.13
2022-12-27T02:03:45.765Z,50.03
2022-12-27T02:06:15.429Z,60.55
2022-12-27T02:08:49.164Z,89.93
2022-12-27T02:11:39.971Z,90.00
2022-12-27T02:14:08.184Z,113.68
2022-12-27T02:16:36.078Z,105.55
2022-12-27T02:19:08.591Z,79.70
2022-12-27T02:21:42.185Z,75.22
2022-12-27T02:24:37.610Z,93.18
2022-12-27T02:27:38.817Z,60.08
2022-12-27T02:30:08.903Z,67.53
2022-12-27T02:32:45.417Z,79.93
2022-12-27T02:35:27.191Z,72.03
2022-12-27T02:38:02.805Z,68.82
2022-12-27T02:40:51.220Z,71.25
2022-12-27T02:43:37.609Z,74.90
2022-12-27T02:46:46.823Z,95.22
2022-12-27T02:49:48.618Z,111.20
2022-12-27T02:53:07.273Z,83.28
2022-12-27T02:56:14.897Z,106.88
2022-12-27T03:00:37.618Z,65.03
2022-12-27T03:03:50.728Z,45.60
2022-12-27T03:06:42.876Z,50.50
2022-12-27T03:09:41.857Z,54.92
2022-12-27T03:12:36.074Z,64.15
2022-12-27T03:15:35.376Z,70.55
2022-12-27T03:18:11.134Z,76.57
2022-12-27T03:20:59.174Z,60.78
2022-12-27T03:23:47.926Z,71.47
2022-12-27T03:29:07.371Z,56.25
2022-12-27T03:32:02.502Z,62.67
2022-12-27T03:34:41.057Z,46.72
2022-12-27T03:37:34.488Z,53.42
2022-12-27T03:40:20.735Z,49.17
2022-12-27T03:43:13.238Z,39.35
2022-12-27T03:46:16.247Z,43.75
2022-12-27T03:48:57.894Z,40.47
2022-12-27T03:51:30.378Z,39.35
2022-12-27T03:54:07.117Z,39.45
2022-12-27T03:56:35.860Z,51.75
2022-12-27T03:59:05.414Z,48.20
2022-12-27T04:01:33.403Z,58.65
2022-12-27T04:04:01.398Z,53.70
2022-12-27T04:06:29.462Z,56.25
2022-12-27T04:09:15.776Z,63.65
2022-12-27T04:12:02.446Z,54.78
2022-12-27T04:14:48.971Z,59.13
2022-12-27T04:17:36.221Z,55.63
2022-12-27T04:20:22.909Z,50.75
2022-12-27T04:23:09.165Z,55.03
2022-12-27T04:25:55.488Z,56.60
2022-12-27T04:28:41.587Z,39.97
2022-12-27T04:31:28.660Z,49.35
2022-12-27T04:34:15.656Z,77.72
2022-12-27T04:36:43.746Z,61.67
2022-12-27T04:39:13.166Z,47.05
2022-12-27T04:41:59.598Z,48.50
2022-12-27T04:44:45.719Z,51.90
2022-12-27T04:47:34.507Z,47.58
2022-12-27T04:50:22.577Z,47.30
2022-12-27T04:53:11.285Z,30.35
2022-12-27T04:55:39.230Z,44.88
2022-12-27T04:58:07.115Z,40.45
2022-12-27T05:00:53.807Z,75.45
2022-12-27T05:03:24.457Z,57.40
2022-12-27T05:05:53.928Z,45.45
2022-12-27T05:08:41.634Z,70.60
2022-12-27T05:11:29.544Z,70.68
2022-12-27T05:14:00.114Z,55.10
2022-12-27T05:16:35.959Z,57.05
2022-12-27T05:19:08.909Z,51.88
2022-12-27T05:21:38.426Z,49.50
2022-12-27T05:26:56.488Z,47.72
2022-12-27T05:29:24.517Z,58.45
2022-12-27T05:31:52.740Z,70.70
2022-12-27T05:34:20.777Z,58.28
2022-12-27T05:36:48.704Z,73.13
2022-12-27T05:39:16.576Z,71.13
2022-12-27T05:41:44.690Z,49.70
2022-12-27T05:44:12.570Z,65.90
2022-12-27T05:46:40.795Z,57.35
2022-12-27T05:49:08.707Z,59.28
2022-12-27T05:51:37.271Z,68.53
2022-12-27T05:54:05.487Z,74.82
2022-12-27T05:56:37.436Z,62.97
2022-12-27T05:59:08.222Z,61.15
2022-12-27T06:01:36.276Z,83.53
2022-12-27T06:04:04.368Z,73.30
2022-12-27T06:06:34.027Z,122.05
2022-12-27T06:09:02.320Z,99.68
2022-12-27T06:11:30.234Z,101.78
2022-12-27T06:13:58.056Z,125.88
2022-12-27T06:16:26.130Z,87.97
2022-12-27T06:18:53.987Z,90.18
2022-12-27T06:21:22.378Z,91.57
2022-12-27T06:23:50.650Z,97.78
2022-12-27T06:26:22.347Z,113.05
2022-12-27T06:28:50.901Z,106.00
2022-12-27T06:31:20.239Z,112.60
2022-12-27T06:36:23.365Z,74.22
2022-12-27T06:38:51.325Z,70.75
2022-12-27T06:41:19.399Z,71.57
2022-12-27T06:43:48.226Z,70.50
2022-12-27T06:46:18.852Z,66.60
2022-12-27T06:48:47.950Z,61.00
2022-12-27T06:51:18.290Z,97.65
2022-12-27T06:53:48.502Z,69.75
2022-12-27T06:58:47.343Z,50.05
2022-12-27T07:01:23.870Z,63.70
2022-12-27T07:03:54.730Z,63.72
2022-12-27T07:06:24.483Z,58.97
2022-12-27T07:08:53.521Z,81.50
2022-12-27T07:11:22.855Z,76.63
2022-12-27T07:13:53.675Z,78.55
2022-12-27T07:16:27.028Z,78.95
2022-12-27T07:18:56.897Z,59.97
2022-12-27T07:21:27.298Z,56.80
2022-12-27T07:23:56.025Z,63.58
2022-12-27T07:26:28.137Z,82.40
2022-12-27T07:28:58.598Z,126.03
2022-12-27T07:31:30.013Z,103.28
2022-12-27T07:34:00.636Z,59.42
2022-12-27T07:36:32.689Z,60.00
2022-12-27T07:39:00.744Z,62.55
2022-12-27T07:41:29.225Z,61.45
2022-12-27T07:43:57.401Z,54.15
2022-12-27T07:46:27.022Z,40.95
2022-12-27T07:48:56.504Z,30.80
2022-12-27T07:51:25.521Z,27.42
2022-12-27T07:53:54.129Z,31.45
2022-12-27T07:56:26.659Z,32.03
2022-12-27T07:58:57.865Z,24.23
2022-12-27T08:01:28.874Z,28.48
2022-12-27T08:03:57.288Z,21.80
2022-12-27T08:06:35.698Z,17.63
2022-12-27T08:09:07.040Z,18.77
2022-12-27T08:11:34.983Z,19.05
2022-12-27T08:14:03.188Z,21.83
2022-12-27T08:16:31.295Z,20.30
2022-12-27T08:19:04.799Z,19.15
2022-12-27T08:21:36.969Z,16.65
2022-12-27T08:24:05.468Z,16.45
2022-12-27T08:26:33.395Z,20.02
2022-12-27T08:29:01.572Z,16.48
2022-12-27T08:31:30.092Z,16.50
2022-12-27T08:33:58.960Z,25.63
2022-12-27T08:39:15.421Z,24.05
2022-12-27T08:41:43.834Z,21.13
2022-12-27T08:44:12.865Z,21.90
2022-12-27T08:46:41.301Z,17.00
2022-12-27T08:49:09.599Z,31.45
2022-12-27T08:51:41.046Z,31.48
2022-12-27T08:54:10.212Z,23.05
2022-12-27T08:56:38.169Z,24.70
2022-12-27T08:59:06.658Z,21.58
2022-12-27T09:01:35.127Z,18.27
2022-12-27T09:04:03.500Z,19.52
2022-12-27T09:06:31.735Z,20.38
2022-12-27T09:09:01.618Z,49.70
2022-12-27T09:11:33.440Z,41.22
2022-12-27T09:14:04.212Z,56.95
2022-12-27T09:16:36.635Z,55.28
2022-12-27T09:19:05.390Z,51.28
2022-12-27T09:21:34.602Z,71.10
2022-12-27T09:24:03.403Z,51.97
2022-12-27T09:26:31.489Z,71.55
2022-12-27T09:29:00.128Z,84.25
2022-12-27T09:31:28.859Z,99.70
2022-12-27T09:33:57.962Z,94.53
2022-12-27T09:36:30.157Z,154.07
2022-12-27T09:38:59.199Z,82.32
2022-12-27T09:42:45.888Z,58.45
2022-12-27T09:45:06.804Z,69.20
2022-12-27T09:47:49.633Z,71.90
2022-12-27T09:50:33.811Z,67.18
2022-12-27T09:53:14.241Z,78.30
2022-12-27T09:58:38.629Z,45.03
2022-12-27T10:01:32.807Z,40.15
2022-12-27T10:04:02.666Z,37.25
2022-12-27T10:06:34.108Z,60.97
2022-12-27T10:09:24.120Z,41.83
2022-12-27T10:12:04.798Z,37.97
2022-12-27T10:15:04.662Z,66.90
2022-12-27T10:17:52.702Z,16.50
2022-12-27T10:20:48.666Z,17.55
2022-12-27T10:23:23.128Z,25.23
2022-12-27T10:26:02.093Z,16.40
2022-12-27T10:28:58.866Z,15.07
2022-12-27T10:31:27.953Z,22.60
2022-12-27T10:33:58.397Z,17.80
2022-12-27T10:36:29.491Z,17.50
2022-12-27T10:38:57.824Z,16.95
2022-12-27T10:41:52.052Z,16.65
2022-12-27T10:44:20.369Z,16.48
2022-12-27T10:46:56.539Z,13.90
2022-12-27T10:49:30.005Z,12.32
2022-12-27T10:52:08.173Z,14.38
2022-12-27T10:54:49.688Z,9.43
2022-12-27T10:57:30.315Z,15.73
2022-12-27T11:00:19.904Z,32.30
2022-12-27T11:03:01.027Z,17.98
2022-12-27T11:05:31.724Z,15.13
2022-12-27T11:08:01.634Z,15.02
2022-12-27T11:10:34.258Z,17.38
2022-12-27T11:13:05.518Z,36.50
2022-12-27T11:15:43.346Z,57.60
2022-12-27T11:18:18.105Z,11.57
2022-12-27T11:21:04.692Z,7.40
2022-12-27T11:23:44.785Z,9.70
2022-12-27T11:26:26.018Z,8.18
2022-12-27T11:28:58.820Z,8.95
2022-12-27T11:31:31.257Z,8.80
2022-12-27T11:34:08.170Z,6.68
2022-12-27T11:36:42.464Z,11.10
2022-12-27T11:39:37.981Z,9.13
2022-12-27T11:42:18.669Z,11.65
2022-12-27T11:45:13.353Z,10.85
2022-12-27T11:47:50.356Z,7.57
2022-12-27T11:50:27.767Z,8.35
2022-12-27T11:53:23.446Z,9.18
2022-12-27T11:56:00.087Z,8.02
2022-12-27T11:59:00.297Z,19.40
2022-12-27T12:02:06.981Z,13.63
2022-12-27T12:04:35.225Z,14.60
2022-12-27T12:07:39.747Z,9.15
2022-12-27T12:10:29.455Z,10.52
2022-12-27T12:13:18.546Z,13.30
2022-12-27T12:16:01.617Z,12.35
2022-12-27T12:18:56.110Z,12.23
2022-12-27T12:21:27.818Z,12.45
2022-12-27T12:24:14.169Z,59.33
2022-12-27T12:26:58.799Z,21.77
2022-12-27T12:29:46.963Z,16.05
2022-12-27T12:32:22.317Z,15.93
2022-12-27T12:35:27.962Z,14.43
2022-12-27T12:38:13.649Z,11.68
2022-12-27T12:40:47.683Z,14.77
2022-12-27T12:43:19.020Z,15.98
2022-12-27T12:46:14.709Z,20.00
2022-12-27T12:48:52.838Z,19.08
2022-12-27T12:51:31.417Z,19.50
2022-12-27T12:54:20.591Z,22.17
2022-12-27T12:57:10.275Z,21.38
2022-12-27T12:59:57.015Z,21.95
2022-12-27T13:02:46.953Z,23.83
2022-12-27T13:05:56.421Z,18.35
2022-12-27T13:08:39.031Z,14.50
2022-12-27T13:11:25.758Z,17.15
2022-12-27T13:14:32.679Z,16.90
2022-12-27T13:17:35.096Z,17.23
2022-12-27T13:20:34.324Z,12.80
2022-12-27T13:23:41.302Z,13.73
2022-12-27T13:26:25.299Z,15.98
2022-12-27T13:29:15.508Z,16.00
2022-12-27T13:32:10.194Z,12.82
2022-12-27T13:35:03.553Z,14.57
2022-12-27T13:40:59.263Z,12.32
2022-12-27T13:44:01.996Z,11.32
2022-12-27T13:46:42.402Z,12.35
2022-12-27T13:49:38.161Z,12.23
2022-12-27T13:52:27.346Z,14.30
2022-12-27T13:55:20.953Z,12.95
2022-12-27T13:58:08.257Z,10.48
2022-12-27T14:00:47.003Z,11.77
2022-12-27T14:03:33.566Z,9.75
2022-12-27T14:06:06.376Z,14.32
2022-12-27T14:09:29.520Z,12.32
2022-12-27T14:12:15.995Z,10.15
2022-12-27T14:14:47.276Z,23.27
2022-12-27T14:17:24.333Z,9.93
2022-12-27T14:19:55.397Z,10.05
2022-12-27T14:22:55.195Z,8.23
2022-12-27T14:25:52.365Z,12.40
2022-12-27T14:29:00.123Z,8.82
2022-12-27T14:32:05.880Z,12.75
2022-12-27T14:34:42.551Z,19.60
2022-12-27T14:37:35.329Z,20.85
2022-12-27T14:40:12.680Z,22.27
2022-12-27T14:43:16.126Z,22.25
2022-12-27T14:46:08.318Z,33.05
2022-12-27T14:48:45.835Z,27.38
2022-12-27T14:55:02.717Z,25.23
2022-12-27T14:57:49.855Z,20.80
2022-12-27T15:02:51.336Z,28.50
2022-12-27T15:05:27.727Z,24.88
2022-12-27T15:08:07.408Z,30.35
2022-12-27T15:10:54.253Z,22.25
2022-12-27T15:13:39.285Z,25.67
2022-12-27T15:16:16.283Z,29.33
2022-12-27T15:19:03.013Z,30.63
2022-12-27T15:21:49.148Z,27.30
2022-12-27T15:24:35.572Z,30.27
2022-12-27T15:27:19.990Z,31.58
2022-12-27T15:30:22.251Z,26.35
2022-12-27T15:33:04.625Z,33.05
2022-12-27T15:36:03.319Z,26.40
2022-12-27T15:38:51.073Z,39.85
2022-12-27T15:41:42.080Z,148.52
2022-12-27T15:44:23.805Z,61.22
2022-12-27T15:47:29.576Z,46.00
2022-12-27T15:50:34.680Z,22.80
2022-12-27T15:53:28.011Z,24.15
2022-12-27T15:55:59.089Z,43.00
2022-12-27T15:58:27.998Z,62.42
2022-12-27T16:01:23.661Z,61.03
2022-12-27T16:03:55.518Z,98.93
2022-12-27T16:06:35.969Z,60.70
2022-12-27T16:09:25.878Z,45.78
2022-12-27T16:12:09.453Z,25.42
2022-12-27T16:14:40.635Z,28.08
2022-12-27T16:17:27.490Z,20.00
2022-12-27T16:20:01.353Z,16.95
2022-12-27T16:22:42.980Z,12.00
2022-12-27T16:25:32.706Z,16.13
2022-12-27T16:28:24.145Z,16.83
2022-12-27T16:30:55.087Z,17.35
2022-12-27T16:33:26.152Z,42.17
2022-12-27T16:36:12.597Z,26.60
2022-12-27T16:38:57.118Z,24.38
2022-12-27T16:41:25.505Z,63.00
2022-12-27T16:44:02.678Z,47.05
2022-12-27T16:46:57.310Z,57.15
2022-12-27T16:49:39.715Z,98.68
2022-12-27T16:52:15.344Z,103.78
2022-12-27T16:54:55.575Z,60.70
2022-12-27T16:57:26.995Z,70.65
2022-12-27T17:00:11.553Z,68.22
2022-12-27T17:02:42.561Z,62.63
2022-12-27T17:05:16.863Z,48.45
2022-12-27T17:07:58.474Z,47.45
2022-12-27T17:10:30.568Z,40.33
2022-12-27T17:13:13.703Z,34.20
2022-12-27T17:16:08.366Z,37.75
2022-12-27T17:18:48.620Z,36.58
2022-12-27T17:21:40.783Z,73.57
2022-12-27T17:24:10.783Z,61.38
2022-12-27T17:27:03.316Z,62.15
2022-12-27T17:29:49.646Z,53.63
2022-12-27T17:32:50.388Z,42.55
2022-12-27T17:35:52.868Z,22.67
2022-12-27T17:38:36.930Z,18.58
2022-12-27T17:41:17.660Z,31.15
2022-12-27T17:44:25.370Z,33.17
2022-12-27T17:47:16.071Z,52.65
2022-12-27T17:49:45.110Z,33.08
2022-12-27T17:52:37.405Z,21.35
2022-12-27T17:55:43.132Z,15.70
2022-12-27T17:58:16.602Z,18.15
2022-12-27T18:00:55.921Z,15.82
2022-12-27T18:03:40.544Z,15.00
2022-12-27T18:06:09.344Z,13.35
2022-12-27T18:08:39.242Z,19.50
2022-12-27T18:11:10.748Z,17.30
2022-12-27T18:13:45.858Z,12.30
2022-12-27T18:16:28.148Z,25.38
2022-12-27T18:19:00.353Z,20.17
2022-12-27T18:21:30.540Z,14.70
2022-12-27T18:23:59.231Z,14.13
2022-12-27T18:27:00.275Z,51.17
2022-12-27T18:29:29.014Z,110.72
2022-12-27T18:32:03.003Z,102.13
2022-12-27T18:34:41.653Z,57.75
2022-12-27T18:37:13.779Z,38.92
2022-12-27T18:39:51.748Z,27.70
2022-12-27T18:42:37.821Z,34.25
2022-12-27T18:45:20.026Z,24.88
2022-12-27T18:47:51.602Z,41.92
2022-12-27T18:50:23.118Z,37.92
2022-12-27T18:53:28.654Z,48.53
2022-12-27T18:56:06.984Z,45.38
2022-12-27T18:58:35.610Z,53.92
2022-12-27T19:01:25.563Z,68.13
2022-12-27T19:04:15.540Z,93.18
2022-12-27T19:07:08.821Z,72.88
2022-12-27T19:09:51.408Z,90.00
2022-12-27T19:12:29.034Z,86.93
2022-12-27T19:14:58.102Z,69.53
2022-12-27T19:20:02.495Z,63.63
2022-12-27T19:22:36.576Z,60.53
2022-12-27T19:25:19.250Z,142.20
2022-12-27T19:28:16.675Z,190.77
2022-12-27T19:30:51.955Z,63.05
2022-12-27T19:33:30.573Z,104.75
2022-12-27T19:36:00.092Z,133.20
2022-12-27T19:38:31.919Z,118.85
2022-12-27T19:41:04.165Z,190.00
2022-12-27T19:43:42.923Z,89.70
2022-12-27T19:46:13.418Z,126.60
2022-12-27T19:48:42.141Z,162.10
2022-12-27T19:51:16.511Z,106.70
2022-12-27T19:53:55.428Z,57.75
2022-12-27T19:56:26.413Z,92.40
2022-12-27T19:58:54.740Z,70.20
2022-12-27T20:01:23.376Z,57.08
2022-12-27T20:03:51.795Z,58.95
2022-12-27T20:06:24.143Z,48.40
2022-12-27T20:08:55.385Z,14.52
2022-12-27T20:11:23.965Z,16.08
2022-12-27T20:13:51.929Z,55.55
2022-12-27T20:16:20.908Z,64.70
2022-12-27T20:18:49.003Z,109.40
2022-12-27T20:21:19.282Z,98.85
2022-12-27T20:23:47.868Z,91.38
2022-12-27T20:26:21.762Z,82.80
2022-12-27T20:28:50.290Z,39.63
2022-12-27T20:31:20.442Z,52.63
2022-12-27T20:33:53.352Z,84.65
2022-12-27T20:36:22.762Z,77.38
2022-12-27T20:43:47.759Z,89.85
2022-12-27T20:46:17.974Z,55.90
2022-12-27T20:48:47.592Z,31.95
2022-12-27T20:51:21.354Z,18.83
2022-12-27T20:53:57.459Z,19.23
2022-12-27T20:56:26.206Z,181.07
2022-12-27T20:58:54.272Z,157.90
2022-12-27T21:01:24.479Z,145.45
2022-12-27T21:03:53.640Z,150.95
2022-12-27T21:06:27.274Z,130.98
2022-12-27T21:08:57.819Z,128.88
2022-12-27T21:11:33.915Z,94.00
2022-12-27T21:14:03.973Z,107.68
2022-12-27T21:16:34.074Z,115.85
2022-12-27T21:19:05.102Z,116.50
2022-12-27T21:21:36.096Z,92.50
2022-12-27T21:24:06.483Z,106.07
2022-12-27T21:26:36.697Z,22.40
2022-12-27T21:29:06.941Z,58.33
2022-12-27T21:31:36.657Z,84.43
2022-12-27T21:34:05.097Z,88.32
2022-12-27T21:36:34.301Z,90.25
2022-12-27T21:39:03.604Z,108.50
2022-12-27T21:44:01.678Z,71.60
2022-12-27T21:46:33.241Z,90.97
2022-12-27T21:49:09.686Z,110.47
2022-12-27T21:51:38.354Z,133.85
2022-12-27T21:54:07.328Z,130.38
2022-12-27T21:56:35.582Z,117.43
2022-12-27T21:59:07.530Z,133.25
2022-12-27T22:01:50.100Z,118.32
2022-12-27T22:04:21.867Z,117.38
2022-12-27T22:06:50.802Z,121.40
2022-12-27T22:09:19.680Z,134.07
2022-12-27T22:11:48.154Z,152.63
2022-12-27T22:14:18.740Z,153.65
2022-12-27T22:16:49.864Z,125.65
2022-12-27T22:19:17.962Z,117.50
2022-12-27T22:21:45.947Z,135.90
2022-12-27T22:24:19.731Z,154.70
2022-12-27T22:26:48.861Z,154.82
2022-12-27T22:29:17.964Z,143.27
2022-12-27T22:31:46.764Z,116.72
2022-12-27T22:34:14.799Z,64.55
2022-12-27T22:36:42.937Z,35.63
2022-12-27T22:39:10.977Z,36.00
2022-12-27T22:41:39.033Z,74.25
2022-12-27T22:44:10.543Z,94.70
2022-12-27T22:47:06.992Z,96.18
2022-12-27T22:49:26.977Z,113.57
2022-12-27T22:51:54.787Z,116.35
2022-12-27T22:55:05.401Z,106.82
2022-12-27T22:57:10.845Z,106.82
2022-12-27T22:59:38.788Z,106.55
2022-12-27T23:02:06.846Z,112.10
2022-12-27T23:04:35.459Z,126.55
2022-12-27T23:07:03.619Z,150.90
2022-12-27T23:09:31.594Z,145.50
2022-12-27T23:11:59.504Z,85.95
2022-12-27T23:14:27.628Z,91.45
2022-12-27T23:16:55.751Z,82.30
2022-12-27T23:19:24.567Z,71.90
2022-12-27T23:21:52.406Z,67.85
2022-12-27T23:24:20.446Z,65.50
2022-12-27T23:26:49.015Z,85.18
2022-12-27T23:29:16.857Z,97.10
2022-12-27T23:31:54.683Z,85.63
2022-12-27T23:34:28.692Z,82.78
2022-12-27T23:37:01.509Z,79.05
2022-12-27T23:39:29.455Z,81.95
2022-12-27T23:41:57.541Z,90.80
2022-12-27T23:44:33.866Z,87.70
2022-12-27T23:47:04.529Z,101.25
2022-12-27T23:49:32.616Z,71.03
2022-12-27T23:52:00.518Z,73.25
2022-12-27T23:54:28.484Z,89.82
2022-12-27T23:56:56.429Z,84.05
2022-12-27T23:59:24.832Z,69.82
